Austonio, Texas
Current Conditions -  °F | °C
As of 4:55 PM on Saturday 25 Oct 2014 (Local Time) from KDKR Reporting Station
Clear Clear  
Wind Chill: 30°   Ceiling: Unl
Heat Index: 31°   Visibility: NA
Dew Point: 18°   Wind: 0mph
Humidity: 48%   Direction: NA
Pressure: 30.12"   Gusts: NA
Location:  31.2828°N, 95.4821°W
Report Text: KDKR 252155Z AUTO 00000KT CLR 30/18 A3012 RMK AO2
Loading
Personal Weather Stations






























Interactive Weather Map
Tropical Storm Tracking
New forecast layout! Learn more

10-Day Weather Forecast

Advertisements
Track Severe Weather on mobile